Time;durP1;ratioP1;P1;durP2;ratioP2;P2;SDS_P1;SDS_P2;PMS_P1;PMS_P2;Temp;Humidity;BMP_temperature;BMP_pressure;BME280_temperature;BME280_humidity;BME280_pressure;Samples;Min_cycle;Max_cycle;Signal;HPM_P1;HPM_P2
2022/04/23 00:01:20;;;;;;;4.70;3.50;;;13.90;54.20;;;;;;4894725;29;20368;-80
2022/04/23 00:03:45;;;;;;;6.13;3.75;;;13.90;54.30;;;;;;4894901;29;20670;-80
2022/04/23 00:06:11;;;;;;;5.60;3.50;;;13.90;54.20;;;;;;4904738;29;20044;-80
2022/04/23 00:08:37;;;;;;;5.57;3.65;;;13.90;54.30;;;;;;4901690;29;20398;-80
2022/04/23 00:11:02;;;;;;;6.10;3.57;;;13.80;54.40;;;;;;4904653;29;20036;-80
2022/04/23 00:13:28;;;;;;;5.53;3.70;;;13.80;54.40;;;;;;4884335;29;20079;-80
2022/04/23 00:15:54;;;;;;;7.23;3.73;;;13.80;54.50;;;;;;4895148;29;20028;-80
2022/04/23 00:18:19;;;;;;;6.47;4.07;;;13.80;54.60;;;;;;4900964;29;20543;-80
2022/04/23 00:20:48;;;;;;;5.07;3.60;;;13.80;54.40;;;;;;4894808;29;20032;-80
2022/04/23 00:23:14;;;;;;;5.50;3.60;;;13.70;54.50;;;;;;4904711;29;20051;-81
2022/04/23 00:25:42;;;;;;;5.28;3.63;;;13.70;54.80;;;;;;4907468;29;20644;-80
2022/04/23 00:28:09;;;;;;;5.28;3.50;;;13.70;55.00;;;;;;4877335;29;20047;-80
2022/04/23 00:30:35;;;;;;;5.40;3.83;;;13.70;55.20;;;;;;4895704;29;21019;-80
2022/04/23 00:33:02;;;;;;;5.32;3.85;;;13.70;55.10;;;;;;4905666;29;20504;-80
2022/04/23 00:35:28;;;;;;;5.40;3.90;;;13.70;55.20;;;;;;4886273;29;20042;-81
2022/04/23 00:37:54;;;;;;;5.72;4.05;;;13.70;55.40;;;;;;4903009;29;20039;-81
2022/04/23 00:40:21;;;;;;;6.40;4.03;;;13.80;55.40;;;;;;4906157;29;20031;-79
2022/04/23 00:42:57;;;;;;;7.20;4.28;;;13.80;55.60;;;;;;4876222;29;20045;-81
2022/04/23 00:45:23;;;;;;;5.47;3.95;;;13.80;55.80;;;;;;4933795;28;20492;-80
2022/04/23 00:47:50;;;;;;;6.35;3.85;;;13.90;55.80;;;;;;4888350;29;20258;-81
2022/04/23 00:50:21;;;;;;;6.00;4.27;;;13.90;55.60;;;;;;4893368;29;20119;-80
2022/04/23 00:52:50;;;;;;;5.32;3.50;;;13.90;55.90;;;;;;4898245;29;20028;-80
2022/04/23 00:55:16;;;;;;;8.23;4.70;;;14.00;55.90;;;;;;4901986;29;20594;-80
2022/04/23 00:57:42;;;;;;;6.75;4.57;;;14.00;55.70;;;;;;4893962;29;20553;-80
2022/04/23 01:00:09;;;;;;;6.20;4.23;;;14.10;55.60;;;;;;4890888;29;20255;-80
2022/04/23 01:02:39;;;;;;;6.72;4.53;;;14.10;56.10;;;;;;4893864;29;20130;-81
2022/04/23 01:05:09;;;;;;;6.53;4.60;;;14.10;56.30;;;;;;4906280;28;20046;-80
2022/04/23 01:07:44;;;;;;;6.78;4.63;;;14.20;56.10;;;;;;4903848;29;20040;-80
2022/04/23 01:10:11;;;;;;;7.68;4.97;;;14.20;56.50;;;;;;4901536;29;20070;-80
2022/04/23 01:12:37;;;;;;;7.03;4.47;;;14.20;56.00;;;;;;4901004;29;20109;-79
2022/04/23 01:15:10;;;;;;;6.88;4.55;;;14.20;56.90;;;;;;4874869;29;20425;-81
2022/04/23 01:17:36;;;;;;;6.30;4.38;;;14.30;56.60;;;;;;4893948;29;20133;-80
2022/04/23 01:20:05;;;;;;;6.97;4.45;;;14.30;56.20;;;;;;4889949;29;20300;-81
2022/04/23 01:22:32;;;;;;;7.07;4.68;;;14.30;56.40;;;;;;4902153;29;20032;-80
2022/04/23 01:24:57;;;;;;;6.93;4.67;;;14.30;56.20;;;;;;4900105;29;20824;-80
2022/04/23 01:27:29;;;;;;;6.80;4.63;;;14.30;56.20;;;;;;4905385;29;20076;-80
2022/04/23 01:29:56;;;;;;;7.25;5.20;;;14.30;56.30;;;;;;4886044;29;20395;-80
2022/04/23 01:32:22;;;;;;;8.80;5.70;;;14.30;56.40;;;;;;4894818;29;20044;-80
2022/04/23 01:34:47;;;;;;;7.67;5.23;;;14.30;56.40;;;;;;4896242;29;20393;-80
2022/04/23 01:37:13;;;;;;;7.73;5.30;;;14.30;56.50;;;;;;4890597;29;20571;-80
2022/04/23 01:39:40;;;;;;;7.40;4.85;;;14.30;56.60;;;;;;4904507;29;20054;-80
2022/04/23 01:42:06;;;;;;;6.22;4.55;;;14.30;56.30;;;;;;4900784;29;20429;-79
2022/04/23 01:44:31;;;;;;;6.38;4.68;;;14.30;56.50;;;;;;4883711;29;20040;-80
2022/04/23 01:46:57;;;;;;;7.70;4.93;;;14.30;56.50;;;;;;4899682;29;20643;-80
2022/04/23 01:49:22;;;;;;;8.53;5.53;;;14.30;56.40;;;;;;4893368;29;20127;-80
2022/04/23 01:51:48;;;;;;;6.77;4.87;;;14.30;56.60;;;;;;4895218;29;20808;-80
2022/04/23 01:54:14;;;;;;;7.10;5.20;;;14.30;56.70;;;;;;4898883;29;20040;-80
2022/04/23 01:56:40;;;;;;;8.43;5.13;;;14.30;56.80;;;;;;4901635;29;20032;-81
2022/04/23 01:59:05;;;;;;;7.30;4.95;;;14.30;56.60;;;;;;4900186;29;20626;-80
2022/04/23 02:01:31;;;;;;;7.53;4.70;;;14.30;56.70;;;;;;4882046;29;20032;-80
2022/04/23 02:03:57;;;;;;;8.30;5.33;;;14.30;56.70;;;;;;4886504;29;20040;-79
2022/04/23 02:06:23;;;;;;;6.72;4.78;;;14.30;56.80;;;;;;4905197;29;20372;-81
2022/04/23 02:08:49;;;;;;;6.80;4.80;;;14.30;56.70;;;;;;4890070;29;20040;-80
2022/04/23 02:11:15;;;;;;;7.37;4.77;;;14.30;57.00;;;;;;4905593;29;20473;-80
2022/04/23 02:13:41;;;;;;;6.97;4.85;;;14.30;56.70;;;;;;4900865;29;20472;-80
2022/04/23 02:16:06;;;;;;;7.57;5.60;;;14.30;57.00;;;;;;4878664;29;20044;-81
2022/04/23 02:18:32;;;;;;;8.80;5.95;;;14.30;57.20;;;;;;4901748;29;20410;-80
2022/04/23 02:20:58;;;;;;;7.65;5.18;;;14.20;57.00;;;;;;4879429;29;22195;-80
2022/04/23 02:23:24;;;;;;;7.07;4.80;;;14.20;57.10;;;;;;4892745;29;20033;-81
2022/04/23 02:25:50;;;;;;;7.70;5.13;;;14.20;57.10;;;;;;4898221;29;20078;-80
2022/04/23 02:28:15;;;;;;;8.80;5.80;;;14.20;57.00;;;;;;4900480;29;20044;-80
2022/04/23 02:30:41;;;;;;;7.55;5.40;;;14.20;57.30;;;;;;4896688;29;20071;-80
2022/04/23 02:33:07;;;;;;;8.10;5.57;;;14.20;57.10;;;;;;4886796;29;20271;-80
2022/04/23 02:35:35;;;;;;;8.90;5.63;;;14.20;57.10;;;;;;4897131;29;20056;-81
2022/04/23 02:38:03;;;;;;;8.33;5.80;;;14.20;57.10;;;;;;4893594;29;20405;-80
2022/04/23 02:40:29;;;;;;;9.25;5.95;;;14.10;57.20;;;;;;4904880;29;20393;-81
2022/04/23 02:42:56;;;;;;;6.60;5.10;;;14.20;57.30;;;;;;4902550;29;20047;-80
2022/04/23 02:45:24;;;;;;;8.33;6.30;;;14.20;57.50;;;;;;4901555;29;20032;-80
2022/04/23 02:47:54;;;;;;;7.72;5.63;;;14.10;57.40;;;;;;4883299;29;20044;-82
2022/04/23 02:50:32;;;;;;;7.93;5.35;;;14.10;57.80;;;;;;4899142;29;20043;-80
2022/04/23 02:52:59;;;;;;;7.22;5.55;;;14.10;58.40;;;;;;4887677;29;20128;-82
2022/04/23 02:55:26;;;;;;;7.70;5.65;;;14.10;57.60;;;;;;4899222;29;20521;-80
2022/04/23 02:57:52;;;;;;;7.33;5.33;;;14.10;57.70;;;;;;4903775;29;20457;-81
2022/04/23 03:00:19;;;;;;;8.38;5.85;;;14.10;57.70;;;;;;4910951;29;20083;-80
2022/04/23 03:02:47;;;;;;;7.28;5.40;;;14.10;57.80;;;;;;4889044;29;20098;-80
2022/04/23 03:05:16;;;;;;;8.27;5.75;;;14.00;57.80;;;;;;4894172;29;20206;-80
2022/04/23 03:07:43;;;;;;;9.35;6.35;;;14.00;57.70;;;;;;4906290;29;20067;-81
2022/04/23 03:10:11;;;;;;;8.27;6.20;;;14.00;57.80;;;;;;4884118;29;20383;-80
2022/04/23 03:12:38;;;;;;;8.00;5.47;;;14.00;57.90;;;;;;4905170;29;20031;-80
2022/04/23 03:15:09;;;;;;;8.48;5.78;;;14.00;58.10;;;;;;4901155;29;20354;-80
2022/04/23 03:17:36;;;;;;;7.63;5.05;;;13.90;58.10;;;;;;4905620;29;20595;-79
2022/04/23 03:20:07;;;;;;;8.98;5.50;;;13.90;58.00;;;;;;4886404;29;20572;-81
2022/04/23 03:22:33;;;;;;;7.00;5.27;;;13.90;58.00;;;;;;4888059;29;20044;-80
2022/04/23 03:24:59;;;;;;;7.15;5.15;;;13.90;57.90;;;;;;4893855;29;20279;-80
2022/04/23 03:27:25;;;;;;;8.10;5.63;;;13.90;57.90;;;;;;4905966;29;20115;-80
2022/04/23 03:29:50;;;;;;;7.43;5.37;;;13.90;57.90;;;;;;4901640;29;20485;-80
2022/04/23 03:32:17;;;;;;;7.40;5.17;;;13.90;57.90;;;;;;4894303;29;20115;-81
2022/04/23 03:34:42;;;;;;;8.88;5.47;;;13.90;57.90;;;;;;4885058;29;20143;-80
2022/04/23 03:37:09;;;;;;;8.05;5.28;;;13.90;58.00;;;;;;4894601;29;20973;-81
2022/04/23 03:39:35;;;;;;;7.13;4.75;;;13.80;58.10;;;;;;4903231;29;20028;-81
2022/04/23 03:42:02;;;;;;;6.90;4.93;;;13.90;58.00;;;;;;4890465;29;20048;-80
2022/04/23 03:44:30;;;;;;;9.63;6.18;;;13.80;58.00;;;;;;4898709;29;20552;-80
2022/04/23 03:46:56;;;;;;;7.82;5.72;;;13.80;58.20;;;;;;4917154;29;20255;-81
2022/04/23 03:49:23;;;;;;;7.22;5.22;;;13.80;58.30;;;;;;4872768;29;20041;-81
2022/04/23 03:51:51;;;;;;;7.95;5.63;;;13.80;58.30;;;;;;4901732;29;20088;-79
2022/04/23 03:54:17;;;;;;;6.80;5.10;;;13.70;58.40;;;;;;4893017;29;20039;-79
2022/04/23 03:56:44;;;;;;;8.77;5.85;;;13.80;58.20;;;;;;4898992;29;20040;-82
2022/04/23 03:59:09;;;;;;;8.57;5.38;;;13.70;58.40;;;;;;4907089;29;20265;-80
2022/04/23 04:01:35;;;;;;;7.20;4.97;;;13.70;58.40;;;;;;4905109;29;20067;-80
2022/04/23 04:04:01;;;;;;;7.65;5.75;;;13.70;58.40;;;;;;4881526;29;20267;-80
2022/04/23 04:06:27;;;;;;;9.40;6.10;;;13.70;58.40;;;;;;4912694;29;20453;-80
2022/04/23 04:08:54;;;;;;;9.07;5.43;;;13.70;58.40;;;;;;4889944;29;20036;-80
2022/04/23 04:11:19;;;;;;;7.47;4.82;;;13.60;58.60;;;;;;4904145;29;20098;-80
2022/04/23 04:13:45;;;;;;;8.23;4.90;;;13.60;58.50;;;;;;4895027;29;20040;-81
2022/04/23 04:16:12;;;;;;;8.25;5.50;;;13.60;58.50;;;;;;4919146;28;20643;-80
2022/04/23 04:18:38;;;;;;;9.02;6.10;;;13.60;58.50;;;;;;4899783;29;20044;-80
2022/04/23 04:21:04;;;;;;;7.68;5.22;;;13.60;58.80;;;;;;4875870;29;20058;-80
2022/04/23 04:23:30;;;;;;;8.45;5.88;;;13.60;58.80;;;;;;4901726;29;20020;-80
2022/04/23 04:25:55;;;;;;;9.00;5.90;;;13.50;58.60;;;;;;4890817;29;20144;-81
2022/04/23 04:28:21;;;;;;;7.80;5.35;;;13.50;58.70;;;;;;4892636;29;20125;-80
2022/04/23 04:33:32;;;;;;;8.40;5.53;;;13.50;58.80;;;;;;4898895;29;20044;-81
2022/04/23 04:35:57;;;;;;;9.27;6.10;;;13.50;58.70;;;;;;4868582;29;20316;-80
2022/04/23 04:38:23;;;;;;;7.88;5.28;;;13.50;58.80;;;;;;4894021;29;20040;-81
2022/04/23 04:40:49;;;;;;;8.27;5.83;;;13.50;58.90;;;;;;4890667;29;20047;-81
2022/04/23 04:43:15;;;;;;;8.20;5.87;;;13.50;58.90;;;;;;4894565;29;20300;-80
2022/04/23 04:45:41;;;;;;;8.63;6.00;;;13.40;58.90;;;;;;4898000;29;20054;-80
2022/04/23 04:48:07;;;;;;;8.60;5.93;;;13.40;59.10;;;;;;4896369;29;20487;-80
2022/04/23 04:50:33;;;;;;;8.35;5.90;;;13.40;59.00;;;;;;4906525;29;20563;-80
2022/04/23 04:52:59;;;;;;;9.60;6.07;;;13.40;59.10;;;;;;4882623;29;20064;-79
2022/04/23 04:55:24;;;;;;;8.63;5.90;;;13.40;59.20;;;;;;4893940;29;20246;-80
2022/04/23 04:57:50;;;;;;;9.05;6.18;;;13.40;59.90;;;;;;4902316;29;20261;-80
2022/04/23 05:00:18;;;;;;;7.50;5.63;;;13.40;59.10;;;;;;4881612;29;20039;-81
2022/04/23 05:02:44;;;;;;;8.23;5.75;;;13.40;59.40;;;;;;4918966;29;20051;-80
2022/04/23 05:05:10;;;;;;;9.15;5.93;;;13.30;59.40;;;;;;4893955;29;20032;-80
2022/04/23 05:07:36;;;;;;;8.85;5.72;;;13.30;59.40;;;;;;4865346;29;20029;-80
2022/04/23 05:10:02;;;;;;;8.40;5.40;;;13.30;59.40;;;;;;4885761;29;20044;-81
2022/04/23 05:12:28;;;;;;;8.27;5.78;;;13.30;59.30;;;;;;4890588;29;20096;-80
2022/04/23 05:14:53;;;;;;;8.77;5.43;;;13.30;59.40;;;;;;4881122;29;20200;-80
2022/04/23 05:17:19;;;;;;;8.35;5.63;;;13.30;59.30;;;;;;4912390;29;20072;-80
2022/04/23 05:19:44;;;;;;;8.33;5.03;;;13.20;59.50;;;;;;4890160;29;20231;-81
2022/04/23 05:22:10;;;;;;;8.00;5.50;;;13.20;59.40;;;;;;4870673;29;20040;-80
2022/04/23 05:24:36;;;;;;;8.45;5.40;;;13.20;59.40;;;;;;4893099;29;20036;-81
2022/04/23 05:27:01;;;;;;;9.23;5.90;;;13.20;59.50;;;;;;4887363;29;20322;-80
2022/04/23 05:29:27;;;;;;;7.57;5.60;;;13.20;59.60;;;;;;4913524;29;20067;-79
2022/04/23 05:31:53;;;;;;;9.80;6.37;;;13.20;59.80;;;;;;4889092;29;20223;-81
2022/04/23 05:34:18;;;;;;;9.43;6.70;;;13.10;59.70;;;;;;4902186;29;20068;-82
2022/04/23 05:36:45;;;;;;;8.30;5.77;;;13.10;60.20;;;;;;4884287;29;20230;-81
2022/04/23 05:39:11;;;;;;;7.47;5.38;;;13.10;60.00;;;;;;4875417;29;20410;-81
2022/04/23 05:41:36;;;;;;;8.95;6.07;;;13.10;60.10;;;;;;4879578;29;20040;-82
2022/04/23 05:44:02;;;;;;;7.73;5.50;;;13.10;60.30;;;;;;4887169;29;20040;-80
2022/04/23 05:46:28;;;;;;;8.00;5.57;;;13.10;60.40;;;;;;4901116;29;20033;-80
2022/04/23 05:48:55;;;;;;;8.75;5.45;;;13.10;60.40;;;;;;4890049;29;20164;-80
2022/04/23 05:51:21;;;;;;;7.88;5.30;;;13.10;60.50;;;;;;4897853;29;20501;-81
2022/04/23 05:53:47;;;;;;;6.93;4.47;;;13.10;60.50;;;;;;4852883;29;20425;-81
2022/04/23 05:56:12;;;;;;;8.20;5.32;;;13.10;60.50;;;;;;4895027;29;20271;-81
2022/04/23 05:58:38;;;;;;;7.37;4.83;;;13.10;60.50;;;;;;4876584;29;20567;-80
2022/04/23 06:01:04;;;;;;;8.60;5.95;;;13.20;60.40;;;;;;4896455;29;20560;-81
2022/04/23 06:03:30;;;;;;;8.30;5.53;;;13.20;60.70;;;;;;4890046;29;20036;-80
2022/04/23 06:05:56;;;;;;;7.53;5.47;;;13.30;60.60;;;;;;4891559;29;20055;-81
2022/04/23 06:08:21;;;;;;;8.27;5.23;;;13.30;60.80;;;;;;4877605;29;20404;-81
2022/04/23 06:10:47;;;;;;;8.10;5.20;;;13.30;60.80;;;;;;4907077;29;20120;-80
2022/04/23 06:13:13;;;;;;;7.70;5.30;;;13.40;60.90;;;;;;4886823;29;21647;-80
2022/04/23 06:15:38;;;;;;;7.72;5.45;;;13.40;61.10;;;;;;4892122;29;20076;-80
2022/04/23 06:18:04;;;;;;;8.40;5.80;;;13.50;61.10;;;;;;4888719;29;20473;-82
2022/04/23 06:20:30;;;;;;;7.68;5.43;;;13.60;61.10;;;;;;4899772;29;20042;-80
2022/04/23 06:22:56;;;;;;;7.90;5.23;;;13.70;61.00;;;;;;4886799;29;20034;-80
2022/04/23 06:25:21;;;;;;;7.13;5.03;;;13.70;60.90;;;;;;4857144;29;20689;-81
2022/04/23 06:27:47;;;;;;;8.38;5.03;;;13.80;61.10;;;;;;4894740;29;20120;-81
2022/04/23 06:30:13;;;;;;;9.40;6.20;;;13.80;61.00;;;;;;4877365;29;20037;-79
2022/04/23 06:32:39;;;;;;;9.55;6.18;;;13.90;60.90;;;;;;4898721;29;20126;-82
2022/04/23 06:35:06;;;;;;;9.77;6.50;;;14.00;61.00;;;;;;4876986;29;20048;-80
2022/04/23 06:37:37;;;;;;;10.20;6.45;;;14.00;61.20;;;;;;4923388;29;20444;-80
2022/04/23 06:40:03;;;;;;;8.90;5.97;;;14.10;61.30;;;;;;4877330;29;20071;-81
2022/04/23 06:42:29;;;;;;;8.73;5.95;;;14.20;61.10;;;;;;4895365;29;21544;-80
2022/04/23 06:44:55;;;;;;;9.20;5.88;;;14.30;61.10;;;;;;4887545;29;20047;-81
2022/04/23 06:47:21;;;;;;;8.77;5.30;;;14.40;61.20;;;;;;4906313;29;20326;-81
2022/04/23 06:49:47;;;;;;;9.93;6.43;;;14.40;61.00;;;;;;4885551;29;20413;-80
2022/04/23 06:52:12;;;;;;;8.97;5.97;;;14.50;61.00;;;;;;4911670;29;20039;-80
2022/04/23 06:54:38;;;;;;;7.90;5.20;;;14.60;61.10;;;;;;4888294;29;20496;-80
2022/04/23 06:57:04;;;;;;;9.33;6.00;;;14.70;61.10;;;;;;4892898;29;20028;-81
2022/04/23 06:59:29;;;;;;;8.88;6.05;;;14.80;61.10;;;;;;4892687;29;20493;-81
2022/04/23 07:02:01;;;;;;;8.50;5.87;;;14.90;61.10;;;;;;4889669;29;20051;-80
2022/04/23 07:04:28;;;;;;;9.90;6.20;;;15.00;61.10;;;;;;4887648;29;20112;-80
2022/04/23 07:06:54;;;;;;;7.90;5.55;;;15.10;61.30;;;;;;4888828;29;20075;-80
2022/04/23 07:09:19;;;;;;;8.63;5.87;;;15.30;61.60;;;;;;4894371;29;20130;-81
2022/04/23 07:11:45;;;;;;;8.98;6.38;;;15.50;61.80;;;;;;4878173;29;20044;-80
2022/04/23 07:14:11;;;;;;;10.30;6.70;;;15.70;62.30;;;;;;4893959;29;20239;-80
2022/04/23 07:16:37;;;;;;;10.00;6.28;;;16.00;62.70;;;;;;4910394;29;20374;-80
2022/04/23 07:19:04;;;;;;;10.27;7.40;;;16.20;62.40;;;;;;4888278;29;20044;-81
2022/04/23 07:21:30;;;;;;;9.95;7.25;;;16.60;61.60;;;;;;4903537;29;20032;-81
2022/04/23 07:24:07;;;;;;;8.32;5.68;;;16.80;61.10;;;;;;4902317;29;20107;-81
2022/04/23 07:26:34;;;;;;;8.27;5.53;;;17.00;60.90;;;;;;4883779;29;20036;-82
2022/04/23 07:29:02;;;;;;;7.70;5.63;;;17.20;60.50;;;;;;4891974;29;20044;-80
2022/04/23 07:31:29;;;;;;;8.45;6.28;;;17.50;60.70;;;;;;4891174;29;20621;-80
2022/04/23 07:39:23;;;;;;;8.73;6.38;;;18.30;60.30;;;;;;4896504;29;20477;-80
2022/04/23 07:41:49;;;;;;;8.13;5.77;;;18.60;59.70;;;;;;4880200;29;24882;-81
2022/04/23 07:44:14;;;;;;;8.50;5.93;;;18.80;59.50;;;;;;4931383;28;20044;-81
2022/04/23 07:46:40;;;;;;;7.60;5.77;;;19.00;59.60;;;;;;4887712;29;20655;-82
2022/04/23 07:49:06;;;;;;;6.83;5.37;;;19.30;59.20;;;;;;4894401;29;20048;-80
2022/04/23 07:51:31;;;;;;;9.17;6.50;;;19.60;59.30;;;;;;4888112;29;20937;-81
2022/04/23 07:53:57;;;;;;;8.80;6.63;;;19.90;58.70;;;;;;4894302;29;20036;-81
2022/04/23 07:56:23;;;;;;;7.87;5.63;;;20.10;58.40;;;;;;4895061;29;20064;-81
2022/04/23 07:58:49;;;;;;;9.75;6.18;;;20.40;58.50;;;;;;4885171;29;20390;-81
2022/04/23 08:01:14;;;;;;;7.43;5.93;;;20.60;58.10;;;;;;4916426;28;20076;-82
2022/04/23 08:03:41;;;;;;;7.20;5.57;;;21.00;58.00;;;;;;4891865;29;20036;-80
2022/04/23 08:06:10;;;;;;;8.82;6.30;;;21.20;57.50;;;;;;4885084;29;20048;-81
2022/04/23 08:08:36;;;;;;;7.00;5.78;;;21.50;56.60;;;;;;4873745;29;20036;-82
2022/04/23 08:11:02;;;;;;;7.07;5.57;;;21.80;56.10;;;;;;4894241;29;20044;-81
2022/04/23 08:13:28;;;;;;;7.28;6.13;;;22.00;56.10;;;;;;4881528;29;20035;-80
2022/04/23 08:15:53;;;;;;;7.38;5.80;;;22.30;55.70;;;;;;4900675;29;20092;-81
2022/04/23 08:18:19;;;;;;;7.63;5.63;;;22.60;55.60;;;;;;4890556;29;20043;-81
2022/04/23 08:20:45;;;;;;;6.78;5.43;;;22.90;54.90;;;;;;4890083;29;20092;-80
2022/04/23 08:23:11;;;;;;;7.30;5.25;;;23.10;54.60;;;;;;4886337;29;20291;-80
2022/04/23 08:25:37;;;;;;;8.17;5.17;;;23.30;54.60;;;;;;4892388;29;20295;-80
2022/04/23 08:30:47;;;;;;;7.00;6.00;;;23.90;53.80;;;;;;4875791;29;20349;-80
2022/04/23 08:33:13;;;;;;;9.67;6.70;;;24.10;52.70;;;;;;4874223;29;20157;-82
2022/04/23 08:35:39;;;;;;;7.50;5.78;;;24.30;51.90;;;;;;4895483;29;20070;-82
2022/04/23 08:38:08;;;;;;;7.27;6.10;;;24.50;51.70;;;;;;4891543;29;20044;-80
2022/04/23 08:40:40;;;;;;;7.63;6.20;;;24.70;50.60;;;;;;4891649;29;20453;-80
2022/04/23 08:43:06;;;;;;;6.32;5.68;;;24.90;50.00;;;;;;4900888;29;20130;-81
2022/04/23 08:45:35;;;;;;;7.22;6.05;;;25.00;50.40;;;;;;4874606;29;20024;-80
2022/04/23 08:48:04;;;;;;;7.67;6.47;;;25.20;49.50;;;;;;4887179;29;20044;-80
2022/04/23 08:50:31;;;;;;;7.75;6.38;;;25.30;49.00;;;;;;4889319;29;20224;-82
2022/04/23 08:53:00;;;;;;;5.80;5.20;;;25.40;48.10;;;;;;4890501;29;20068;-80
2022/04/23 08:55:26;;;;;;;6.18;5.55;;;25.50;48.60;;;;;;4907129;29;20229;-82
2022/04/23 08:57:52;;;;;;;6.83;5.23;;;25.60;48.10;;;;;;4898844;29;20444;-82
2022/04/23 09:00:18;;;;;;;6.22;5.10;;;25.80;48.30;;;;;;4882156;29;20123;-79
2022/04/23 09:02:44;;;;;;;6.63;5.65;;;25.90;48.00;;;;;;4883388;29;20567;-81
2022/04/23 09:05:14;;;;;;;7.13;5.28;;;26.10;47.80;;;;;;4902815;29;20068;-81
2022/04/23 09:07:51;;;;;;;6.23;5.37;;;26.20;47.10;;;;;;4889789;29;21283;-81
2022/04/23 09:10:16;;;;;;;7.72;5.50;;;26.30;46.70;;;;;;4893655;29;20258;-80
2022/04/23 09:12:56;;;;;;;5.38;4.63;;;26.30;45.90;;;;;;4898938;29;20702;-81
2022/04/23 09:23:44;;;;;;;5.90;5.10;;;26.40;45.80;;;;;;4898123;29;20040;-82
2022/04/23 09:26:17;;;;;;;7.60;5.68;;;26.40;46.00;;;;;;4895386;29;20032;-82
2022/04/23 09:28:50;;;;;;;7.67;6.10;;;26.60;45.50;;;;;;4897327;29;20035;-81
2022/04/23 09:31:16;;;;;;;6.68;5.95;;;26.70;44.40;;;;;;4896290;29;20359;-81
2022/04/23 09:33:54;;;;;;;7.00;5.80;;;26.80;44.00;;;;;;4876466;29;20547;-82
2022/04/23 09:36:20;;;;;;;6.80;5.85;;;26.90;43.20;;;;;;4925780;28;20021;-81
2022/04/23 09:39:03;;;;;;;6.33;5.30;;;27.00;43.70;;;;;;4898168;29;20039;-81
2022/04/23 09:41:33;;;;;;;5.60;4.93;;;27.10;43.10;;;;;;4884639;29;20620;-81
2022/04/23 09:44:12;;;;;;;7.03;6.15;;;27.30;43.60;;;;;;4892574;29;20056;-82
2022/04/23 09:46:45;;;;;;;6.53;5.43;;;27.40;42.30;;;;;;4908505;29;20147;-82
2022/04/23 09:49:11;;;;;;;6.45;5.60;;;27.50;42.60;;;;;;4881671;29;20444;-80
2022/04/23 09:51:37;;;;;;;5.20;4.70;;;27.50;43.20;;;;;;4885557;29;20274;-81
2022/04/23 09:54:03;;;;;;;6.35;5.45;;;27.70;43.30;;;;;;4896402;29;20032;-81
2022/04/23 09:56:29;;;;;;;5.82;4.72;;;27.90;43.10;;;;;;4905913;29;20032;-80
2022/04/23 09:58:55;;;;;;;6.57;4.97;;;28.00;42.40;;;;;;4895392;29;20040;-80
2022/04/23 10:01:23;;;;;;;6.32;5.43;;;28.20;42.40;;;;;;4888097;29;20358;-80
2022/04/23 10:03:51;;;;;;;6.50;4.85;;;28.30;41.60;;;;;;4878116;29;20305;-80
2022/04/23 10:06:19;;;;;;;6.85;5.63;;;28.40;41.40;;;;;;4888314;29;20036;-80
2022/04/23 10:08:59;;;;;;;6.03;5.20;;;28.50;40.80;;;;;;4897744;29;20036;-82
2022/04/23 10:11:29;;;;;;;5.53;4.88;;;28.60;40.70;;;;;;4890102;29;20561;-80
2022/04/23 10:14:06;;;;;;;5.85;4.68;;;28.70;41.10;;;;;;4889126;29;20548;-81
2022/04/23 10:16:33;;;;;;;6.90;5.10;;;28.90;40.10;;;;;;4895716;29;20436;-80
2022/04/23 10:19:01;;;;;;;5.47;4.47;;;29.00;40.80;;;;;;4873930;29;20043;-82
2022/04/23 10:21:33;;;;;;;6.87;4.83;;;29.20;41.10;;;;;;4887779;29;20039;-82
2022/04/23 10:24:17;;;;;;;5.57;4.70;;;29.40;40.00;;;;;;4892979;29;20047;-81
2022/04/23 10:26:50;;;;;;;5.95;4.40;;;29.50;39.40;;;;;;4882816;29;20225;-81
2022/04/23 10:29:23;;;;;;;6.22;5.20;;;29.40;38.30;;;;;;4900181;29;20028;-80
2022/04/23 10:32:35;;;;;;;6.35;4.95;;;29.20;37.10;;;;;;4878402;29;20067;-80
2022/04/23 10:35:02;;;;;;;6.30;5.43;;;28.70;36.70;;;;;;4867455;29;20232;-80
2022/04/23 10:37:28;;;;;;;5.43;4.93;;;28.30;35.70;;;;;;4877170;29;20067;-81
2022/04/23 10:39:53;;;;;;;5.30;4.80;;;27.80;35.90;;;;;;4884838;29;20282;-80
2022/04/23 10:42:21;;;;;;;5.60;4.50;;;27.30;36.10;;;;;;4890090;29;20428;-80
2022/04/23 10:44:48;;;;;;;5.50;4.50;;;26.80;36.80;;;;;;4898324;29;20348;-81
2022/04/23 10:47:39;;;;;;;6.07;4.75;;;26.40;37.80;;;;;;4885981;29;20033;-80
2022/04/23 10:50:15;;;;;;;4.20;3.75;;;26.20;38.90;;;;;;4900186;29;20040;-81
2022/04/23 10:52:41;;;;;;;5.53;4.88;;;26.20;39.30;;;;;;4890799;29;20036;-80
2022/04/23 10:55:14;;;;;;;6.17;4.40;;;26.20;39.40;;;;;;4905488;29;20039;-81
2022/04/23 10:57:49;;;;;;;5.85;4.85;;;26.10;39.50;;;;;;4912421;29;20299;-80
2022/04/23 11:00:17;;;;;;;5.95;4.70;;;26.20;39.90;;;;;;4904212;29;20051;-80
2022/04/23 11:02:56;;;;;;;6.57;5.07;;;26.40;40.70;;;;;;4895080;29;20440;-81
2022/04/23 11:13:48;;;;;;;5.53;4.78;;;27.20;39.90;;;;;;4895552;29;20052;-81
2022/04/23 11:16:18;;;;;;;6.00;4.85;;;27.40;40.10;;;;;;4898982;29;20393;-80
2022/04/23 11:18:55;;;;;;;4.43;4.03;;;27.70;40.40;;;;;;4887910;29;20241;-81
2022/04/23 11:21:26;;;;;;;6.47;4.30;;;28.00;41.30;;;;;;4887803;29;20623;-80
2022/04/23 11:23:57;;;;;;;5.60;4.22;;;28.40;40.20;;;;;;4885226;29;20028;-81
2022/04/23 11:26:44;;;;;;;4.85;4.35;;;28.60;39.60;;;;;;4898762;29;20135;-82
2022/04/23 11:29:10;;;;;;;4.15;3.53;;;28.90;38.80;;;;;;4911268;29;20037;-82
2022/04/23 11:31:36;;;;;;;4.90;4.20;;;29.10;39.30;;;;;;4883127;29;20278;-81
2022/04/23 11:34:03;;;;;;;4.25;3.83;;;29.20;39.20;;;;;;4891489;29;20064;-80
2022/04/23 11:36:34;;;;;;;5.85;4.10;;;29.40;38.30;;;;;;4879091;29;20364;-81
2022/04/23 11:39:04;;;;;;;4.90;3.92;;;29.50;37.90;;;;;;4898959;29;20102;-81
2022/04/23 11:41:30;;;;;;;5.57;3.87;;;29.70;37.90;;;;;;4899238;29;20257;-80
2022/04/23 11:43:56;;;;;;;3.97;3.53;;;29.90;37.60;;;;;;4903451;29;20055;-80
2022/04/23 11:46:21;;;;;;;4.72;4.25;;;30.00;37.20;;;;;;4889353;29;20036;-81
2022/04/23 11:48:48;;;;;;;3.60;3.17;;;30.00;36.00;;;;;;4886308;29;20364;-81
2022/04/23 11:51:21;;;;;;;4.70;4.05;;;29.90;35.80;;;;;;4903336;29;20111;-81
2022/04/23 11:53:57;;;;;;;3.80;3.40;;;29.80;35.10;;;;;;4880099;29;20044;-81
2022/04/23 11:56:25;;;;;;;4.20;3.63;;;29.70;35.20;;;;;;4908248;29;20071;-80
2022/04/23 11:58:56;;;;;;;3.92;3.53;;;29.60;34.90;;;;;;4895853;29;20040;-82
2022/04/23 12:01:23;;;;;;;4.82;3.55;;;29.40;35.10;;;;;;4888991;29;20115;-80
2022/04/23 12:03:54;;;;;;;4.45;3.63;;;29.30;35.30;;;;;;4889170;29;20126;-81
2022/04/23 12:06:24;;;;;;;3.90;3.20;;;29.20;35.50;;;;;;4880108;29;20060;-80
2022/04/23 12:08:50;;;;;;;4.80;3.97;;;29.10;35.70;;;;;;4881108;29;20135;-81
2022/04/23 12:11:23;;;;;;;4.97;3.42;;;29.10;35.80;;;;;;4895283;29;20458;-81
2022/04/23 12:13:50;;;;;;;5.03;3.80;;;29.00;35.40;;;;;;4902783;29;20064;-81
2022/04/23 12:16:39;;;;;;;4.53;3.67;;;28.90;35.60;;;;;;4900810;29;20039;-80
2022/04/23 12:19:06;;;;;;;4.17;3.77;;;28.80;35.40;;;;;;4896865;29;20107;-82
2022/04/23 12:21:32;;;;;;;4.97;3.75;;;28.70;35.40;;;;;;4889937;29;20087;-81
2022/04/23 12:23:59;;;;;;;3.80;3.28;;;28.60;35.40;;;;;;4876808;29;20127;-82
2022/04/23 12:26:37;;;;;;;5.20;3.58;;;28.60;35.80;;;;;;4891707;29;20071;-82
2022/04/23 12:43:21;;;;;;;4.90;4.07;;;29.10;36.40;;;;;;4899753;29;20071;-82
2022/04/23 12:45:48;;;;;;;4.10;3.60;;;29.30;35.70;;;;;;4897358;29;20338;-80
2022/04/23 12:48:14;;;;;;;5.22;4.10;;;29.50;35.80;;;;;;4935886;28;20040;-81
2022/04/23 12:50:40;;;;;;;4.07;3.55;;;29.50;35.70;;;;;;4900821;29;20855;-81
2022/04/23 12:53:06;;;;;;;4.47;3.63;;;29.50;35.30;;;;;;4902868;29;20032;-81
2022/04/23 12:55:36;;;;;;;4.07;3.20;;;29.50;35.80;;;;;;4876674;29;20595;-81
2022/04/23 12:58:09;;;;;;;4.07;3.67;;;29.50;35.30;;;;;;4902157;29;20087;-81
2022/04/23 13:00:42;;;;;;;4.55;3.30;;;29.50;34.80;;;;;;4894029;29;20231;-81
2022/04/23 13:03:37;;;;;;;5.40;4.15;;;29.60;35.00;;;;;;4900222;29;20555;-82
2022/04/23 13:08:54;;;;;;;4.90;3.55;;;29.60;34.20;;;;;;4897398;29;20055;-81
2022/04/23 13:08:56;;;;;;;4.57;3.73;;;29.60;34.70;;;;;;4899915;29;20036;-82
2022/04/23 13:11:27;;;;;;;5.32;3.88;;;29.50;34.60;;;;;;4880455;29;20644;-80
2022/04/23 13:13:59;;;;;;;3.53;3.22;;;29.50;34.40;;;;;;4896975;29;20032;-82
2022/04/23 13:16:27;;;;;;;3.75;3.30;;;29.50;34.50;;;;;;4898871;29;20080;-81
2022/04/23 13:18:55;;;;;;;4.60;3.60;;;29.50;34.40;;;;;;4903090;29;20533;-81
2022/04/23 13:21:22;;;;;;;3.90;3.50;;;29.40;33.90;;;;;;4893840;29;20386;-81
2022/04/23 13:23:50;;;;;;;3.63;3.00;;;29.40;34.00;;;;;;4913781;29;20123;-81
2022/04/23 13:26:16;;;;;;;4.15;3.47;;;29.30;33.70;;;;;;4868716;29;20395;-81
2022/04/23 13:28:42;;;;;;;3.85;3.45;;;29.20;33.60;;;;;;4901961;29;20066;-81
2022/04/23 13:31:09;;;;;;;3.90;3.23;;;29.20;33.40;;;;;;4897549;29;20535;-79